sensor_id;sensor_type;location;lat;lon;timestamp;temperature;humidity
15969;DHT22;8085;53.472;9.794;2023-07-22T00:01:09;13.30;91.70
15969;DHT22;8085;53.472;9.794;2023-07-22T00:03:36;13.30;92.00
15969;DHT22;8085;53.472;9.794;2023-07-22T00:06:04;13.30;91.70
15969;DHT22;8085;53.472;9.794;2023-07-22T00:08:32;13.40;91.70
15969;DHT22;8085;53.472;9.794;2023-07-22T00:10:59;13.30;91.60
15969;DHT22;8085;53.472;9.794;2023-07-22T00:13:27;13.30;91.60
15969;DHT22;8085;53.472;9.794;2023-07-22T00:15:54;13.30;91.60
15969;DHT22;8085;53.472;9.794;2023-07-22T00:18:21;13.30;91.60
15969;DHT22;8085;53.472;9.794;2023-07-22T00:20:49;13.40;91.60
15969;DHT22;8085;53.472;9.794;2023-07-22T00:23:17;13.30;91.60
15969;DHT22;8085;53.472;9.794;2023-07-22T00:25:44;13.30;91.50
15969;DHT22;8085;53.472;9.794;2023-07-22T00:28:10;13.30;91.40
15969;DHT22;8085;53.472;9.794;2023-07-22T00:30:39;13.30;91.50
15969;DHT22;8085;53.472;9.794;2023-07-22T00:33:06;13.30;91.50
15969;DHT22;8085;53.472;9.794;2023-07-22T00:35:32;13.40;91.60
15969;DHT22;8085;53.472;9.794;2023-07-22T00:38:00;13.30;91.60
15969;DHT22;8085;53.472;9.794;2023-07-22T00:40:27;13.30;91.50
15969;DHT22;8085;53.472;9.794;2023-07-22T00:42:56;13.30;91.60
15969;DHT22;8085;53.472;9.794;2023-07-22T00:45:22;13.30;91.50
15969;DHT22;8085;53.472;9.794;2023-07-22T00:47:51;13.30;91.50
15969;DHT22;8085;53.472;9.794;2023-07-22T00:50:18;13.30;91.50
15969;DHT22;8085;53.472;9.794;2023-07-22T00:52:45;13.40;91.50
15969;DHT22;8085;53.472;9.794;2023-07-22T00:55:13;13.30;91.40
15969;DHT22;8085;53.472;9.794;2023-07-22T00:57:40;13.30;91.30
15969;DHT22;8085;53.472;9.794;2023-07-22T01:00:08;13.30;91.30
15969;DHT22;8085;53.472;9.794;2023-07-22T01:02:37;13.30;91.30
15969;DHT22;8085;53.472;9.794;2023-07-22T01:05:06;13.30;91.30
15969;DHT22;8085;53.472;9.794;2023-07-22T01:07:35;13.30;91.20
15969;DHT22;8085;53.472;9.794;2023-07-22T01:10:02;13.20;91.10
15969;DHT22;8085;53.472;9.794;2023-07-22T01:12:31;13.20;91.10
15969;DHT22;8085;53.472;9.794;2023-07-22T01:14:58;13.20;91.10
15969;DHT22;8085;53.472;9.794;2023-07-22T01:17:26;13.10;91.10
15969;DHT22;8085;53.472;9.794;2023-07-22T01:19:53;13.10;91.00
15969;DHT22;8085;53.472;9.794;2023-07-22T01:22:22;13.10;91.00
15969;DHT22;8085;53.472;9.794;2023-07-22T01:24:51;13.00;91.00
15969;DHT22;8085;53.472;9.794;2023-07-22T01:27:18;13.00;91.10
15969;DHT22;8085;53.472;9.794;2023-07-22T01:29:45;13.00;91.00
15969;DHT22;8085;53.472;9.794;2023-07-22T01:32:12;13.00;91.10
15969;DHT22;8085;53.472;9.794;2023-07-22T01:34:39;12.90;91.10
15969;DHT22;8085;53.472;9.794;2023-07-22T01:37:07;12.90;91.10
15969;DHT22;8085;53.472;9.794;2023-07-22T01:39:35;12.90;91.10
15969;DHT22;8085;53.472;9.794;2023-07-22T01:42:04;12.90;91.10
15969;DHT22;8085;53.472;9.794;2023-07-22T01:44:31;12.90;91.10
15969;DHT22;8085;53.472;9.794;2023-07-22T01:47:01;12.90;91.50
15969;DHT22;8085;53.472;9.794;2023-07-22T01:49:28;12.80;91.10
15969;DHT22;8085;53.472;9.794;2023-07-22T01:51:54;12.80;91.10
15969;DHT22;8085;53.472;9.794;2023-07-22T01:54:21;12.80;91.10
15969;DHT22;8085;53.472;9.794;2023-07-22T01:56:48;12.80;91.10
15969;DHT22;8085;53.472;9.794;2023-07-22T01:59:16;12.90;91.30
15969;DHT22;8085;53.472;9.794;2023-07-22T02:01:43;12.80;91.20
15969;DHT22;8085;53.472;9.794;2023-07-22T02:04:10;12.70;91.10
15969;DHT22;8085;53.472;9.794;2023-07-22T02:06:37;12.80;91.10
15969;DHT22;8085;53.472;9.794;2023-07-22T02:09:04;12.70;91.10
15969;DHT22;8085;53.472;9.794;2023-07-22T02:11:34;12.70;91.10
15969;DHT22;8085;53.472;9.794;2023-07-22T02:14:01;12.70;91.20
15969;DHT22;8085;53.472;9.794;2023-07-22T02:16:33;12.60;91.10
15969;DHT22;8085;53.472;9.794;2023-07-22T02:19:00;12.70;91.20
15969;DHT22;8085;53.472;9.794;2023-07-22T02:21:27;12.50;91.10
15969;DHT22;8085;53.472;9.794;2023-07-22T02:23:54;12.60;91.20
15969;DHT22;8085;53.472;9.794;2023-07-22T02:26:21;12.70;91.30
15969;DHT22;8085;53.472;9.794;2023-07-22T02:28:48;12.60;91.30
15969;DHT22;8085;53.472;9.794;2023-07-22T02:31:15;12.50;91.20
15969;DHT22;8085;53.472;9.794;2023-07-22T02:33:43;12.50;91.20
15969;DHT22;8085;53.472;9.794;2023-07-22T02:36:10;12.50;91.20
15969;DHT22;8085;53.472;9.794;2023-07-22T02:38:37;12.50;91.20
15969;DHT22;8085;53.472;9.794;2023-07-22T02:41:04;12.50;91.20
15969;DHT22;8085;53.472;9.794;2023-07-22T02:43:33;12.50;91.30
15969;DHT22;8085;53.472;9.794;2023-07-22T02:46:01;12.40;91.60
15969;DHT22;8085;53.472;9.794;2023-07-22T02:48:28;12.40;91.30
15969;DHT22;8085;53.472;9.794;2023-07-22T02:51:02;12.40;91.20
15969;DHT22;8085;53.472;9.794;2023-07-22T02:53:30;12.40;91.30
15969;DHT22;8085;53.472;9.794;2023-07-22T02:55:57;12.40;91.20
15969;DHT22;8085;53.472;9.794;2023-07-22T02:58:24;12.30;91.20
15969;DHT22;8085;53.472;9.794;2023-07-22T03:00:51;12.30;91.30
15969;DHT22;8085;53.472;9.794;2023-07-22T03:03:18;12.30;91.60
15969;DHT22;8085;53.472;9.794;2023-07-22T03:05:45;12.20;91.30
15969;DHT22;8085;53.472;9.794;2023-07-22T03:08:14;12.30;91.40
15969;DHT22;8085;53.472;9.794;2023-07-22T03:10:41;12.30;91.30
15969;DHT22;8085;53.472;9.794;2023-07-22T03:13:12;12.30;91.30
15969;DHT22;8085;53.472;9.794;2023-07-22T03:15:39;12.20;91.30
15969;DHT22;8085;53.472;9.794;2023-07-22T03:18:06;12.30;91.30
15969;DHT22;8085;53.472;9.794;2023-07-22T03:20:35;12.20;91.30
15969;DHT22;8085;53.472;9.794;2023-07-22T03:23:02;12.30;91.40
15969;DHT22;8085;53.472;9.794;2023-07-22T03:25:30;12.20;91.40
15969;DHT22;8085;53.472;9.794;2023-07-22T03:28:00;12.20;91.40
15969;DHT22;8085;53.472;9.794;2023-07-22T03:30:28;12.20;91.40
15969;DHT22;8085;53.472;9.794;2023-07-22T03:32:55;12.20;91.40
15969;DHT22;8085;53.472;9.794;2023-07-22T03:35:23;12.20;91.40
15969;DHT22;8085;53.472;9.794;2023-07-22T03:37:50;12.20;91.40
15969;DHT22;8085;53.472;9.794;2023-07-22T03:40:17;12.20;91.40
15969;DHT22;8085;53.472;9.794;2023-07-22T03:42:47;12.20;91.40
15969;DHT22;8085;53.472;9.794;2023-07-22T03:45:14;12.10;91.40
15969;DHT22;8085;53.472;9.794;2023-07-22T03:47:41;12.10;91.40
15969;DHT22;8085;53.472;9.794;2023-07-22T03:50:08;12.10;91.40
15969;DHT22;8085;53.472;9.794;2023-07-22T03:52:35;12.10;91.40
15969;DHT22;8085;53.472;9.794;2023-07-22T03:55:03;12.10;91.40
15969;DHT22;8085;53.472;9.794;2023-07-22T03:57:31;12.10;91.50
15969;DHT22;8085;53.472;9.794;2023-07-22T03:59:59;12.10;91.50
15969;DHT22;8085;53.472;9.794;2023-07-22T04:02:26;12.20;91.40
15969;DHT22;8085;53.472;9.794;2023-07-22T04:04:54;12.10;91.40
15969;DHT22;8085;53.472;9.794;2023-07-22T04:07:22;12.10;91.40
15969;DHT22;8085;53.472;9.794;2023-07-22T04:09:49;12.10;91.40
15969;DHT22;8085;53.472;9.794;2023-07-22T04:12:16;12.10;91.50
15969;DHT22;8085;53.472;9.794;2023-07-22T04:14:43;12.10;91.50
15969;DHT22;8085;53.472;9.794;2023-07-22T04:17:11;12.10;91.50
15969;DHT22;8085;53.472;9.794;2023-07-22T04:19:40;12.10;91.50
15969;DHT22;8085;53.472;9.794;2023-07-22T04:22:07;12.20;91.60
15969;DHT22;8085;53.472;9.794;2023-07-22T04:24:35;12.10;91.60
15969;DHT22;8085;53.472;9.794;2023-07-22T04:27:02;12.20;91.60
15969;DHT22;8085;53.472;9.794;2023-07-22T04:29:28;12.20;91.60
15969;DHT22;8085;53.472;9.794;2023-07-22T04:31:57;12.20;91.50
15969;DHT22;8085;53.472;9.794;2023-07-22T04:34:28;12.20;91.50
15969;DHT22;8085;53.472;9.794;2023-07-22T04:36:55;12.20;91.60
15969;DHT22;8085;53.472;9.794;2023-07-22T04:39:23;12.20;91.50
15969;DHT22;8085;53.472;9.794;2023-07-22T04:41:50;12.30;91.60
15969;DHT22;8085;53.472;9.794;2023-07-22T04:44:17;12.30;91.50
15969;DHT22;8085;53.472;9.794;2023-07-22T04:46:44;12.30;91.50
15969;DHT22;8085;53.472;9.794;2023-07-22T04:49:12;12.40;91.40
15969;DHT22;8085;53.472;9.794;2023-07-22T04:51:40;12.50;91.40
15969;DHT22;8085;53.472;9.794;2023-07-22T04:54:07;12.30;91.40
15969;DHT22;8085;53.472;9.794;2023-07-22T04:56:34;12.40;91.80
15969;DHT22;8085;53.472;9.794;2023-07-22T04:59:01;12.60;91.60
15969;DHT22;8085;53.472;9.794;2023-07-22T05:01:28;12.60;91.50
15969;DHT22;8085;53.472;9.794;2023-07-22T05:03:55;12.60;91.40
15969;DHT22;8085;53.472;9.794;2023-07-22T05:06:23;12.70;91.30
15969;DHT22;8085;53.472;9.794;2023-07-22T05:08:52;12.70;91.20
15969;DHT22;8085;53.472;9.794;2023-07-22T05:11:18;12.70;91.10
15969;DHT22;8085;53.472;9.794;2023-07-22T05:13:45;12.70;91.10
15969;DHT22;8085;53.472;9.794;2023-07-22T05:16:12;12.70;91.00
15969;DHT22;8085;53.472;9.794;2023-07-22T05:18:39;12.70;91.10
15969;DHT22;8085;53.472;9.794;2023-07-22T05:21:06;12.80;91.20
15969;DHT22;8085;53.472;9.794;2023-07-22T05:23:33;12.80;91.30
15969;DHT22;8085;53.472;9.794;2023-07-22T05:26:01;12.80;91.20
15969;DHT22;8085;53.472;9.794;2023-07-22T05:28:28;12.80;91.50
15969;DHT22;8085;53.472;9.794;2023-07-22T05:30:55;12.90;91.20
15969;DHT22;8085;53.472;9.794;2023-07-22T05:33:22;12.90;91.20
15969;DHT22;8085;53.472;9.794;2023-07-22T05:35:49;12.80;91.10
15969;DHT22;8085;53.472;9.794;2023-07-22T05:38:16;12.90;91.40
15969;DHT22;8085;53.472;9.794;2023-07-22T05:40:43;13.10;91.10
15969;DHT22;8085;53.472;9.794;2023-07-22T05:43:11;13.10;91.40
15969;DHT22;8085;53.472;9.794;2023-07-22T05:45:38;13.10;91.00
15969;DHT22;8085;53.472;9.794;2023-07-22T05:48:05;13.10;90.90
15969;DHT22;8085;53.472;9.794;2023-07-22T05:50:32;13.10;90.90
15969;DHT22;8085;53.472;9.794;2023-07-22T05:52:59;13.20;90.90
15969;DHT22;8085;53.472;9.794;2023-07-22T05:55:26;13.20;91.00
15969;DHT22;8085;53.472;9.794;2023-07-22T05:57:53;13.30;91.00
15969;DHT22;8085;53.472;9.794;2023-07-22T06:00:22;13.30;90.80
15969;DHT22;8085;53.472;9.794;2023-07-22T06:02:49;13.40;90.90
15969;DHT22;8085;53.472;9.794;2023-07-22T06:05:16;13.40;90.70
15969;DHT22;8085;53.472;9.794;2023-07-22T06:07:42;13.50;90.60
15969;DHT22;8085;53.472;9.794;2023-07-22T06:10:14;13.40;90.50
15969;DHT22;8085;53.472;9.794;2023-07-22T06:12:41;13.50;90.50
15969;DHT22;8085;53.472;9.794;2023-07-22T06:15:09;13.60;90.50
15969;DHT22;8085;53.472;9.794;2023-07-22T06:17:37;13.60;90.40
15969;DHT22;8085;53.472;9.794;2023-07-22T06:20:05;13.70;90.30
15969;DHT22;8085;53.472;9.794;2023-07-22T06:22:32;13.70;90.20
15969;DHT22;8085;53.472;9.794;2023-07-22T06:24:59;13.80;90.10
15969;DHT22;8085;53.472;9.794;2023-07-22T06:27:26;13.80;90.10
15969;DHT22;8085;53.472;9.794;2023-07-22T06:29:52;13.90;90.10
15969;DHT22;8085;53.472;9.794;2023-07-22T06:32:20;14.00;90.00
15969;DHT22;8085;53.472;9.794;2023-07-22T06:34:49;14.00;89.80
15969;DHT22;8085;53.472;9.794;2023-07-22T06:37:15;14.10;89.90
15969;DHT22;8085;53.472;9.794;2023-07-22T06:39:42;14.20;89.80
15969;DHT22;8085;53.472;9.794;2023-07-22T06:42:09;14.20;89.30
15969;DHT22;8085;53.472;9.794;2023-07-22T06:44:36;14.30;88.70
15969;DHT22;8085;53.472;9.794;2023-07-22T06:47:03;14.40;88.10
15969;DHT22;8085;53.472;9.794;2023-07-22T06:49:30;14.50;87.70
15969;DHT22;8085;53.472;9.794;2023-07-22T06:51:58;14.60;86.50
15969;DHT22;8085;53.472;9.794;2023-07-22T06:54:25;14.70;86.30
15969;DHT22;8085;53.472;9.794;2023-07-22T06:56:51;14.80;85.10
15969;DHT22;8085;53.472;9.794;2023-07-22T06:59:18;15.00;84.90
15969;DHT22;8085;53.472;9.794;2023-07-22T07:01:45;15.20;84.00
15969;DHT22;8085;53.472;9.794;2023-07-22T07:04:12;15.50;83.90
15969;DHT22;8085;53.472;9.794;2023-07-22T07:06:39;15.80;82.80
15969;DHT22;8085;53.472;9.794;2023-07-22T07:09:07;15.90;78.60
15969;DHT22;8085;53.472;9.794;2023-07-22T07:11:34;16.00;77.50
15969;DHT22;8085;53.472;9.794;2023-07-22T07:14:01;16.10;76.20
15969;DHT22;8085;53.472;9.794;2023-07-22T07:16:30;16.40;77.10
15969;DHT22;8085;53.472;9.794;2023-07-22T07:18:58;16.50;77.20
15969;DHT22;8085;53.472;9.794;2023-07-22T07:21:25;16.70;74.50
15969;DHT22;8085;53.472;9.794;2023-07-22T07:23:53;16.70;73.80
15969;DHT22;8085;53.472;9.794;2023-07-22T07:26:23;16.60;74.10
15969;DHT22;8085;53.472;9.794;2023-07-22T07:28:51;16.60;75.30
15969;DHT22;8085;53.472;9.794;2023-07-22T07:31:18;16.60;74.30
15969;DHT22;8085;53.472;9.794;2023-07-22T07:33:45;16.60;73.60
15969;DHT22;8085;53.472;9.794;2023-07-22T07:36:12;16.80;74.40
15969;DHT22;8085;53.472;9.794;2023-07-22T07:38:40;17.00;72.60
15969;DHT22;8085;53.472;9.794;2023-07-22T07:41:07;17.20;70.80
15969;DHT22;8085;53.472;9.794;2023-07-22T07:43:38;17.40;70.70
15969;DHT22;8085;53.472;9.794;2023-07-22T07:46:15;17.80;70.60
15969;DHT22;8085;53.472;9.794;2023-07-22T07:48:44;17.80;67.20
15969;DHT22;8085;53.472;9.794;2023-07-22T07:51:12;17.90;67.70
15969;DHT22;8085;53.472;9.794;2023-07-22T07:53:39;17.80;68.60
15969;DHT22;8085;53.472;9.794;2023-07-22T07:56:06;17.80;68.30
15969;DHT22;8085;53.472;9.794;2023-07-22T07:58:33;17.70;68.00
15969;DHT22;8085;53.472;9.794;2023-07-22T08:01:02;17.70;68.60
15969;DHT22;8085;53.472;9.794;2023-07-22T08:03:29;17.70;66.90
15969;DHT22;8085;53.472;9.794;2023-07-22T08:05:56;17.70;66.80
15969;DHT22;8085;53.472;9.794;2023-07-22T08:08:22;17.70;65.30
15969;DHT22;8085;53.472;9.794;2023-07-22T08:10:58;17.70;64.80
15969;DHT22;8085;53.472;9.794;2023-07-22T08:13:25;17.60;64.00
15969;DHT22;8085;53.472;9.794;2023-07-22T08:15:52;17.60;62.60
15969;DHT22;8085;53.472;9.794;2023-07-22T08:18:20;17.50;63.40
15969;DHT22;8085;53.472;9.794;2023-07-22T08:20:47;17.40;65.60
15969;DHT22;8085;53.472;9.794;2023-07-22T08:23:14;17.40;65.40
15969;DHT22;8085;53.472;9.794;2023-07-22T08:25:41;17.30;65.00
15969;DHT22;8085;53.472;9.794;2023-07-22T08:28:08;17.20;63.80
15969;DHT22;8085;53.472;9.794;2023-07-22T08:30:35;17.20;64.90
15969;DHT22;8085;53.472;9.794;2023-07-22T08:33:02;17.30;65.50
15969;DHT22;8085;53.472;9.794;2023-07-22T08:35:30;17.30;63.60
15969;DHT22;8085;53.472;9.794;2023-07-22T08:37:57;17.30;64.50
15969;DHT22;8085;53.472;9.794;2023-07-22T08:40:24;17.40;64.10
15969;DHT22;8085;53.472;9.794;2023-07-22T08:42:51;17.50;63.60
15969;DHT22;8085;53.472;9.794;2023-07-22T08:45:19;17.50;62.80
15969;DHT22;8085;53.472;9.794;2023-07-22T08:47:47;17.50;63.10
15969;DHT22;8085;53.472;9.794;2023-07-22T08:50:19;17.60;61.10
15969;DHT22;8085;53.472;9.794;2023-07-22T08:52:48;17.70;62.00
15969;DHT22;8085;53.472;9.794;2023-07-22T08:55:15;17.90;59.80
15969;DHT22;8085;53.472;9.794;2023-07-22T08:57:43;18.00;59.90
15969;DHT22;8085;53.472;9.794;2023-07-22T09:00:12;18.00;58.90
15969;DHT22;8085;53.472;9.794;2023-07-22T09:02:40;18.10;59.90
15969;DHT22;8085;53.472;9.794;2023-07-22T09:05:08;18.20;59.20
15969;DHT22;8085;53.472;9.794;2023-07-22T09:07:36;18.30;60.20
15969;DHT22;8085;53.472;9.794;2023-07-22T09:10:07;18.40;59.30
15969;DHT22;8085;53.472;9.794;2023-07-22T09:12:35;18.40;58.60
15969;DHT22;8085;53.472;9.794;2023-07-22T09:15:08;18.50;59.20
15969;DHT22;8085;53.472;9.794;2023-07-22T09:17:36;18.50;58.10
15969;DHT22;8085;53.472;9.794;2023-07-22T09:20:04;18.50;57.00
15969;DHT22;8085;53.472;9.794;2023-07-22T09:22:32;18.50;56.40
15969;DHT22;8085;53.472;9.794;2023-07-22T09:25:14;18.50;57.20
15969;DHT22;8085;53.472;9.794;2023-07-22T09:27:41;18.60;58.10
15969;DHT22;8085;53.472;9.794;2023-07-22T09:30:24;18.60;57.20
15969;DHT22;8085;53.472;9.794;2023-07-22T09:32:53;18.50;57.80
15969;DHT22;8085;53.472;9.794;2023-07-22T09:35:21;18.60;59.30
15969;DHT22;8085;53.472;9.794;2023-07-22T09:37:48;18.70;56.80
15969;DHT22;8085;53.472;9.794;2023-07-22T09:40:18;18.60;56.10
15969;DHT22;8085;53.472;9.794;2023-07-22T09:42:46;18.50;55.40
15969;DHT22;8085;53.472;9.794;2023-07-22T09:45:14;18.50;54.80
15969;DHT22;8085;53.472;9.794;2023-07-22T09:47:41;18.40;55.60
15969;DHT22;8085;53.472;9.794;2023-07-22T09:50:11;18.50;55.40
15969;DHT22;8085;53.472;9.794;2023-07-22T09:52:42;18.60;56.30
15969;DHT22;8085;53.472;9.794;2023-07-22T09:55:09;18.70;55.20
15969;DHT22;8085;53.472;9.794;2023-07-22T09:57:42;18.80;55.00
15969;DHT22;8085;53.472;9.794;2023-07-22T10:00:11;19.00;54.00
15969;DHT22;8085;53.472;9.794;2023-07-22T10:02:41;19.10;54.00
15969;DHT22;8085;53.472;9.794;2023-07-22T10:05:11;19.20;56.00
15969;DHT22;8085;53.472;9.794;2023-07-22T10:07:42;19.20;55.30
15969;DHT22;8085;53.472;9.794;2023-07-22T10:10:11;19.20;54.60
15969;DHT22;8085;53.472;9.794;2023-07-22T10:12:40;19.10;54.50
15969;DHT22;8085;53.472;9.794;2023-07-22T10:15:08;19.10;53.30
15969;DHT22;8085;53.472;9.794;2023-07-22T10:17:36;19.10;54.00
15969;DHT22;8085;53.472;9.794;2023-07-22T10:20:03;19.00;52.60
15969;DHT22;8085;53.472;9.794;2023-07-22T10:22:35;19.00;53.80
15969;DHT22;8085;53.472;9.794;2023-07-22T10:25:05;19.10;54.10
15969;DHT22;8085;53.472;9.794;2023-07-22T10:27:34;19.20;52.80
15969;DHT22;8085;53.472;9.794;2023-07-22T10:30:03;19.30;53.20
15969;DHT22;8085;53.472;9.794;2023-07-22T10:32:35;19.40;52.90
15969;DHT22;8085;53.472;9.794;2023-07-22T10:35:03;19.50;52.70
15969;DHT22;8085;53.472;9.794;2023-07-22T10:37:30;19.60;52.20
15969;DHT22;8085;53.472;9.794;2023-07-22T10:40:15;19.60;51.90
15969;DHT22;8085;53.472;9.794;2023-07-22T10:42:51;19.50;52.70
15969;DHT22;8085;53.472;9.794;2023-07-22T10:45:27;19.60;52.90
15969;DHT22;8085;53.472;9.794;2023-07-22T10:48:05;19.70;51.80
15969;DHT22;8085;53.472;9.794;2023-07-22T10:50:40;19.80;52.00
15969;DHT22;8085;53.472;9.794;2023-07-22T10:53:09;19.80;51.00
15969;DHT22;8085;53.472;9.794;2023-07-22T10:56:04;19.90;52.20
15969;DHT22;8085;53.472;9.794;2023-07-22T10:58:32;19.90;50.30
15969;DHT22;8085;53.472;9.794;2023-07-22T11:01:22;19.90;51.40
15969;DHT22;8085;53.472;9.794;2023-07-22T11:04:06;19.80;52.20
15969;DHT22;8085;53.472;9.794;2023-07-22T11:06:33;19.70;52.30
15969;DHT22;8085;53.472;9.794;2023-07-22T11:09:00;19.60;52.10
15969;DHT22;8085;53.472;9.794;2023-07-22T11:11:40;19.60;52.70
15969;DHT22;8085;53.472;9.794;2023-07-22T11:14:14;19.50;53.00
15969;DHT22;8085;53.472;9.794;2023-07-22T11:16:45;19.40;53.90
15969;DHT22;8085;53.472;9.794;2023-07-22T11:19:12;19.30;53.40
15969;DHT22;8085;53.472;9.794;2023-07-22T11:21:40;19.20;53.30
15969;DHT22;8085;53.472;9.794;2023-07-22T11:24:07;19.10;53.90
15969;DHT22;8085;53.472;9.794;2023-07-22T11:26:34;19.10;53.20
15969;DHT22;8085;53.472;9.794;2023-07-22T11:29:02;19.00;52.80
15969;DHT22;8085;53.472;9.794;2023-07-22T11:31:32;19.00;53.20
15969;DHT22;8085;53.472;9.794;2023-07-22T11:34:00;19.00;54.10
15969;DHT22;8085;53.472;9.794;2023-07-22T11:36:27;19.10;54.30
15969;DHT22;8085;53.472;9.794;2023-07-22T11:39:01;19.20;53.60
15969;DHT22;8085;53.472;9.794;2023-07-22T11:41:28;19.30;53.80
15969;DHT22;8085;53.472;9.794;2023-07-22T11:43:57;19.30;54.20
15969;DHT22;8085;53.472;9.794;2023-07-22T11:46:24;19.30;53.80
15969;DHT22;8085;53.472;9.794;2023-07-22T11:48:51;19.30;54.90
15969;DHT22;8085;53.472;9.794;2023-07-22T11:51:20;19.40;53.80
15969;DHT22;8085;53.472;9.794;2023-07-22T11:53:48;19.50;54.00
15969;DHT22;8085;53.472;9.794;2023-07-22T11:56:20;19.60;54.20
15969;DHT22;8085;53.472;9.794;2023-07-22T11:58:51;19.70;53.60
15969;DHT22;8085;53.472;9.794;2023-07-22T12:01:18;19.80;53.30
15969;DHT22;8085;53.472;9.794;2023-07-22T12:03:45;19.80;52.60
15969;DHT22;8085;53.472;9.794;2023-07-22T12:06:12;19.80;52.20
15969;DHT22;8085;53.472;9.794;2023-07-22T12:08:45;19.70;51.50
15969;DHT22;8085;53.472;9.794;2023-07-22T12:11:22;19.70;52.70
15969;DHT22;8085;53.472;9.794;2023-07-22T12:13:54;19.70;53.70
15969;DHT22;8085;53.472;9.794;2023-07-22T12:16:30;19.60;53.30
15969;DHT22;8085;53.472;9.794;2023-07-22T12:18:57;19.60;53.70
15969;DHT22;8085;53.472;9.794;2023-07-22T12:21:24;19.50;53.80
15969;DHT22;8085;53.472;9.794;2023-07-22T12:23:53;19.50;53.40
15969;DHT22;8085;53.472;9.794;2023-07-22T12:26:20;19.40;53.80
15969;DHT22;8085;53.472;9.794;2023-07-22T12:28:47;19.30;54.90
15969;DHT22;8085;53.472;9.794;2023-07-22T12:31:14;19.20;54.60
15969;DHT22;8085;53.472;9.794;2023-07-22T12:33:40;19.20;54.60
15969;DHT22;8085;53.472;9.794;2023-07-22T12:36:07;19.00;55.30
15969;DHT22;8085;53.472;9.794;2023-07-22T12:38:34;19.00;56.30
15969;DHT22;8085;53.472;9.794;2023-07-22T12:41:03;18.90;57.40
15969;DHT22;8085;53.472;9.794;2023-07-22T12:43:30;18.70;60.30
15969;DHT22;8085;53.472;9.794;2023-07-22T12:45:57;18.40;61.50
15969;DHT22;8085;53.472;9.794;2023-07-22T12:48:24;18.20;63.10
15969;DHT22;8085;53.472;9.794;2023-07-22T12:50:51;18.10;63.60
15969;DHT22;8085;53.472;9.794;2023-07-22T12:53:18;18.00;63.90
15969;DHT22;8085;53.472;9.794;2023-07-22T12:55:45;18.00;65.00
15969;DHT22;8085;53.472;9.794;2023-07-22T12:58:13;18.10;64.80
15969;DHT22;8085;53.472;9.794;2023-07-22T13:00:41;18.00;65.00
15969;DHT22;8085;53.472;9.794;2023-07-22T13:03:08;18.00;64.50
15969;DHT22;8085;53.472;9.794;2023-07-22T13:05:34;18.00;64.60
15969;DHT22;8085;53.472;9.794;2023-07-22T13:08:01;17.90;63.90
15969;DHT22;8085;53.472;9.794;2023-07-22T13:10:28;17.80;64.50
15969;DHT22;8085;53.472;9.794;2023-07-22T13:12:57;17.80;66.70
15969;DHT22;8085;53.472;9.794;2023-07-22T13:15:25;17.60;65.10
15969;DHT22;8085;53.472;9.794;2023-07-22T13:17:52;17.60;64.80
15969;DHT22;8085;53.472;9.794;2023-07-22T13:20:19;17.70;66.90
15969;DHT22;8085;53.472;9.794;2023-07-22T13:22:45;17.80;66.10
15969;DHT22;8085;53.472;9.794;2023-07-22T13:25:12;17.90;66.30
15969;DHT22;8085;53.472;9.794;2023-07-22T13:27:39;18.00;67.70
15969;DHT22;8085;53.472;9.794;2023-07-22T13:30:07;18.20;64.30
15969;DHT22;8085;53.472;9.794;2023-07-22T13:32:35;18.20;65.80
15969;DHT22;8085;53.472;9.794;2023-07-22T13:35:03;18.30;67.20
15969;DHT22;8085;53.472;9.794;2023-07-22T13:37:30;18.40;66.20
15969;DHT22;8085;53.472;9.794;2023-07-22T13:39:56;18.50;65.80
15969;DHT22;8085;53.472;9.794;2023-07-22T13:42:23;18.60;65.00
15969;DHT22;8085;53.472;9.794;2023-07-22T13:44:50;18.70;64.50
15969;DHT22;8085;53.472;9.794;2023-07-22T13:47:17;18.70;63.70
15969;DHT22;8085;53.472;9.794;2023-07-22T13:49:45;18.70;63.30
15969;DHT22;8085;53.472;9.794;2023-07-22T13:52:12;18.60;65.90
15969;DHT22;8085;53.472;9.794;2023-07-22T13:54:40;18.50;66.80
15969;DHT22;8085;53.472;9.794;2023-07-22T13:57:07;18.50;67.70
15969;DHT22;8085;53.472;9.794;2023-07-22T13:59:33;18.50;68.10
15969;DHT22;8085;53.472;9.794;2023-07-22T14:02:00;18.70;67.20
15969;DHT22;8085;53.472;9.794;2023-07-22T14:04:27;18.70;67.10
15969;DHT22;8085;53.472;9.794;2023-07-22T14:06:55;18.90;65.80
15969;DHT22;8085;53.472;9.794;2023-07-22T14:09:22;18.90;65.40
15969;DHT22;8085;53.472;9.794;2023-07-22T14:11:49;19.00;64.90
15969;DHT22;8085;53.472;9.794;2023-07-22T14:14:16;19.00;63.50
15969;DHT22;8085;53.472;9.794;2023-07-22T14:16:43;18.90;64.20
15969;DHT22;8085;53.472;9.794;2023-07-22T14:19:09;18.90;64.50
15969;DHT22;8085;53.472;9.794;2023-07-22T14:21:36;18.80;65.30
15969;DHT22;8085;53.472;9.794;2023-07-22T14:24:05;18.80;64.10
15969;DHT22;8085;53.472;9.794;2023-07-22T14:26:31;18.80;64.20
15969;DHT22;8085;53.472;9.794;2023-07-22T14:28:58;18.70;65.10
15969;DHT22;8085;53.472;9.794;2023-07-22T14:31:25;18.60;64.70
15969;DHT22;8085;53.472;9.794;2023-07-22T14:33:52;18.50;65.60
15969;DHT22;8085;53.472;9.794;2023-07-22T14:36:19;18.40;65.70
15969;DHT22;8085;53.472;9.794;2023-07-22T14:38:46;18.30;66.00
15969;DHT22;8085;53.472;9.794;2023-07-22T14:41:14;18.30;65.80
15969;DHT22;8085;53.472;9.794;2023-07-22T14:43:41;18.20;65.50
15969;DHT22;8085;53.472;9.794;2023-07-22T14:46:08;18.20;65.30
15969;DHT22;8085;53.472;9.794;2023-07-22T14:48:35;18.10;65.70
15969;DHT22;8085;53.472;9.794;2023-07-22T14:51:01;18.10;67.30
15969;DHT22;8085;53.472;9.794;2023-07-22T14:53:28;18.10;66.90
15969;DHT22;8085;53.472;9.794;2023-07-22T14:55:55;18.10;67.90
15969;DHT22;8085;53.472;9.794;2023-07-22T14:58:23;18.10;67.30
15969;DHT22;8085;53.472;9.794;2023-07-22T15:00:50;18.10;66.80
15969;DHT22;8085;53.472;9.794;2023-07-22T15:03:17;18.10;65.30
15969;DHT22;8085;53.472;9.794;2023-07-22T15:05:44;18.00;63.40
15969;DHT22;8085;53.472;9.794;2023-07-22T15:08:11;17.90;63.50
15969;DHT22;8085;53.472;9.794;2023-07-22T15:10:38;17.80;63.30
15969;DHT22;8085;53.472;9.794;2023-07-22T15:13:04;17.80;63.60
15969;DHT22;8085;53.472;9.794;2023-07-22T15:15:33;17.80;63.80
15969;DHT22;8085;53.472;9.794;2023-07-22T15:17:59;17.70;62.90
15969;DHT22;8085;53.472;9.794;2023-07-22T15:20:26;17.70;62.80
15969;DHT22;8085;53.472;9.794;2023-07-22T15:22:53;17.70;63.20
15969;DHT22;8085;53.472;9.794;2023-07-22T15:25:20;17.60;63.10
15969;DHT22;8085;53.472;9.794;2023-07-22T15:27:47;17.50;63.80
15969;DHT22;8085;53.472;9.794;2023-07-22T15:30:14;17.50;65.70
15969;DHT22;8085;53.472;9.794;2023-07-22T15:32:42;17.40;66.40
15969;DHT22;8085;53.472;9.794;2023-07-22T15:35:09;17.40;67.20
15969;DHT22;8085;53.472;9.794;2023-07-22T15:37:36;17.30;67.50
15969;DHT22;8085;53.472;9.794;2023-07-22T15:40:03;17.20;67.00
15969;DHT22;8085;53.472;9.794;2023-07-22T15:42:30;17.20;67.80
15969;DHT22;8085;53.472;9.794;2023-07-22T15:44:57;17.20;67.90
15969;DHT22;8085;53.472;9.794;2023-07-22T15:47:26;17.10;68.00
15969;DHT22;8085;53.472;9.794;2023-07-22T15:49:54;17.00;69.10